sensor_id;sensor_type;location;lat;lon;timestamp;P1;durP1;ratioP1;P2;durP2;ratioP2
43152;SDS011;28756;49.064;9.290;2023-12-07T00:00:33;12.82;;;8.90;;
43152;SDS011;28756;49.064;9.290;2023-12-07T00:02:58;13.07;;;8.90;;
43152;SDS011;28756;49.064;9.290;2023-12-07T00:05:24;12.35;;;9.63;;
43152;SDS011;28756;49.064;9.290;2023-12-07T00:07:50;12.52;;;9.05;;
43152;SDS011;28756;49.064;9.290;2023-12-07T00:10:16;12.77;;;9.43;;
43152;SDS011;28756;49.064;9.290;2023-12-07T00:12:41;13.40;;;9.68;;
43152;SDS011;28756;49.064;9.290;2023-12-07T00:15:07;11.38;;;8.82;;
43152;SDS011;28756;49.064;9.290;2023-12-07T00:17:33;13.23;;;9.95;;
43152;SDS011;28756;49.064;9.290;2023-12-07T00:19:58;11.80;;;9.13;;
43152;SDS011;28756;49.064;9.290;2023-12-07T00:22:24;14.43;;;10.15;;
43152;SDS011;28756;49.064;9.290;2023-12-07T00:24:51;13.25;;;9.82;;
43152;SDS011;28756;49.064;9.290;2023-12-07T00:27:17;15.65;;;11.32;;
43152;SDS011;28756;49.064;9.290;2023-12-07T00:29:42;15.82;;;11.25;;
43152;SDS011;28756;49.064;9.290;2023-12-07T00:32:08;13.85;;;10.02;;
43152;SDS011;28756;49.064;9.290;2023-12-07T00:34:33;13.38;;;9.10;;
43152;SDS011;28756;49.064;9.290;2023-12-07T00:36:59;13.02;;;9.95;;
43152;SDS011;28756;49.064;9.290;2023-12-07T00:39:24;12.43;;;9.48;;
43152;SDS011;28756;49.064;9.290;2023-12-07T00:41:50;11.50;;;8.82;;
43152;SDS011;28756;49.064;9.290;2023-12-07T00:44:15;14.85;;;10.95;;
43152;SDS011;28756;49.064;9.290;2023-12-07T00:46:41;14.23;;;10.30;;
43152;SDS011;28756;49.064;9.290;2023-12-07T00:49:07;12.43;;;9.55;;
43152;SDS011;28756;49.064;9.290;2023-12-07T00:51:32;13.38;;;10.00;;
43152;SDS011;28756;49.064;9.290;2023-12-07T00:53:58;14.65;;;9.90;;
43152;SDS011;28756;49.064;9.290;2023-12-07T00:56:23;13.70;;;9.07;;
43152;SDS011;28756;49.064;9.290;2023-12-07T00:58:49;11.38;;;8.68;;
43152;SDS011;28756;49.064;9.290;2023-12-07T01:01:15;11.80;;;8.80;;
43152;SDS011;28756;49.064;9.290;2023-12-07T01:03:41;11.20;;;8.52;;
43152;SDS011;28756;49.064;9.290;2023-12-07T01:06:07;12.77;;;9.45;;
43152;SDS011;28756;49.064;9.290;2023-12-07T01:08:33;11.23;;;8.40;;
43152;SDS011;28756;49.064;9.290;2023-12-07T01:10:58;11.07;;;8.57;;
43152;SDS011;28756;49.064;9.290;2023-12-07T01:13:24;12.27;;;8.63;;
43152;SDS011;28756;49.064;9.290;2023-12-07T01:15:50;10.55;;;7.47;;
43152;SDS011;28756;49.064;9.290;2023-12-07T01:18:15;10.10;;;7.72;;
43152;SDS011;28756;49.064;9.290;2023-12-07T01:20:41;11.23;;;8.55;;
43152;SDS011;28756;49.064;9.290;2023-12-07T01:23:07;12.73;;;10.05;;
43152;SDS011;28756;49.064;9.290;2023-12-07T01:25:35;10.07;;;7.82;;
43152;SDS011;28756;49.064;9.290;2023-12-07T01:28:01;12.95;;;9.15;;
43152;SDS011;28756;49.064;9.290;2023-12-07T01:30:26;10.18;;;7.55;;
43152;SDS011;28756;49.064;9.290;2023-12-07T01:32:52;11.18;;;8.07;;
43152;SDS011;28756;49.064;9.290;2023-12-07T01:35:18;9.70;;;7.43;;
43152;SDS011;28756;49.064;9.290;2023-12-07T01:37:43;13.25;;;7.85;;
43152;SDS011;28756;49.064;9.290;2023-12-07T01:40:09;10.70;;;8.27;;
43152;SDS011;28756;49.064;9.290;2023-12-07T01:42:36;9.70;;;7.78;;
43152;SDS011;28756;49.064;9.290;2023-12-07T01:45:02;11.85;;;8.88;;
43152;SDS011;28756;49.064;9.290;2023-12-07T01:47:29;20.17;;;12.45;;
43152;SDS011;28756;49.064;9.290;2023-12-07T01:49:54;16.00;;;11.10;;
43152;SDS011;28756;49.064;9.290;2023-12-07T01:52:20;16.15;;;11.48;;
43152;SDS011;28756;49.064;9.290;2023-12-07T01:54:47;13.27;;;9.98;;
43152;SDS011;28756;49.064;9.290;2023-12-07T01:57:12;15.85;;;10.23;;
43152;SDS011;28756;49.064;9.290;2023-12-07T01:59:38;17.80;;;10.05;;
43152;SDS011;28756;49.064;9.290;2023-12-07T02:02:04;11.57;;;8.98;;
43152;SDS011;28756;49.064;9.290;2023-12-07T02:04:30;10.73;;;8.10;;
43152;SDS011;28756;49.064;9.290;2023-12-07T02:06:57;13.15;;;9.50;;
43152;SDS011;28756;49.064;9.290;2023-12-07T02:09:23;12.68;;;8.68;;
43152;SDS011;28756;49.064;9.290;2023-12-07T02:11:49;11.60;;;8.93;;
43152;SDS011;28756;49.064;9.290;2023-12-07T02:14:14;12.15;;;8.80;;
43152;SDS011;28756;49.064;9.290;2023-12-07T02:16:45;12.85;;;8.80;;
43152;SDS011;28756;49.064;9.290;2023-12-07T02:22:05;12.05;;;8.07;;
43152;SDS011;28756;49.064;9.290;2023-12-07T02:24:44;10.30;;;8.00;;
43152;SDS011;28756;49.064;9.290;2023-12-07T02:27:16;11.57;;;7.97;;
43152;SDS011;28756;49.064;9.290;2023-12-07T02:29:42;10.75;;;8.40;;
43152;SDS011;28756;49.064;9.290;2023-12-07T02:32:07;10.88;;;7.90;;
43152;SDS011;28756;49.064;9.290;2023-12-07T02:34:34;9.48;;;7.25;;
43152;SDS011;28756;49.064;9.290;2023-12-07T02:36:59;12.77;;;8.90;;
43152;SDS011;28756;49.064;9.290;2023-12-07T02:39:26;12.63;;;9.27;;
43152;SDS011;28756;49.064;9.290;2023-12-07T02:41:52;13.05;;;9.43;;
43152;SDS011;28756;49.064;9.290;2023-12-07T02:44:18;13.88;;;8.98;;
43152;SDS011;28756;49.064;9.290;2023-12-07T02:46:44;11.25;;;8.45;;
43152;SDS011;28756;49.064;9.290;2023-12-07T02:49:10;11.57;;;8.68;;
43152;SDS011;28756;49.064;9.290;2023-12-07T02:51:35;11.73;;;8.70;;
43152;SDS011;28756;49.064;9.290;2023-12-07T02:54:01;11.05;;;8.55;;
43152;SDS011;28756;49.064;9.290;2023-12-07T02:56:26;12.02;;;8.45;;
43152;SDS011;28756;49.064;9.290;2023-12-07T02:58:52;11.25;;;8.10;;
43152;SDS011;28756;49.064;9.290;2023-12-07T03:01:18;13.05;;;8.73;;
43152;SDS011;28756;49.064;9.290;2023-12-07T03:03:43;10.80;;;8.38;;
43152;SDS011;28756;49.064;9.290;2023-12-07T03:06:09;12.43;;;8.88;;
43152;SDS011;28756;49.064;9.290;2023-12-07T03:08:34;13.70;;;8.95;;
43152;SDS011;28756;49.064;9.290;2023-12-07T03:11:00;12.07;;;8.93;;
43152;SDS011;28756;49.064;9.290;2023-12-07T03:13:25;13.10;;;9.02;;
43152;SDS011;28756;49.064;9.290;2023-12-07T03:15:51;12.10;;;7.50;;
43152;SDS011;28756;49.064;9.290;2023-12-07T03:18:16;13.05;;;7.97;;
43152;SDS011;28756;49.064;9.290;2023-12-07T03:20:42;10.75;;;7.65;;
43152;SDS011;28756;49.064;9.290;2023-12-07T03:23:08;12.02;;;7.85;;
43152;SDS011;28756;49.064;9.290;2023-12-07T03:25:33;13.57;;;8.88;;
43152;SDS011;28756;49.064;9.290;2023-12-07T03:27:59;12.18;;;8.32;;
43152;SDS011;28756;49.064;9.290;2023-12-07T03:30:24;12.60;;;8.27;;
43152;SDS011;28756;49.064;9.290;2023-12-07T03:32:50;9.77;;;7.60;;
43152;SDS011;28756;49.064;9.290;2023-12-07T03:35:15;11.55;;;8.50;;
43152;SDS011;28756;49.064;9.290;2023-12-07T03:37:42;12.75;;;8.73;;
43152;SDS011;28756;49.064;9.290;2023-12-07T03:40:07;12.98;;;9.13;;
43152;SDS011;28756;49.064;9.290;2023-12-07T03:42:33;12.18;;;8.73;;
43152;SDS011;28756;49.064;9.290;2023-12-07T03:44:59;9.85;;;7.55;;
43152;SDS011;28756;49.064;9.290;2023-12-07T03:47:25;10.40;;;7.40;;
43152;SDS011;28756;49.064;9.290;2023-12-07T03:49:50;10.68;;;7.93;;
43152;SDS011;28756;49.064;9.290;2023-12-07T03:52:16;11.77;;;8.52;;
43152;SDS011;28756;49.064;9.290;2023-12-07T03:54:41;12.25;;;8.45;;
43152;SDS011;28756;49.064;9.290;2023-12-07T03:57:07;11.00;;;8.00;;
43152;SDS011;28756;49.064;9.290;2023-12-07T03:59:35;14.15;;;10.05;;
43152;SDS011;28756;49.064;9.290;2023-12-07T04:02:01;13.05;;;9.45;;
43152;SDS011;28756;49.064;9.290;2023-12-07T04:04:27;10.82;;;8.10;;
43152;SDS011;28756;49.064;9.290;2023-12-07T04:06:52;10.57;;;7.97;;
43152;SDS011;28756;49.064;9.290;2023-12-07T04:09:18;13.75;;;8.68;;
43152;SDS011;28756;49.064;9.290;2023-12-07T04:11:44;12.30;;;7.78;;
43152;SDS011;28756;49.064;9.290;2023-12-07T04:14:11;13.48;;;9.52;;
43152;SDS011;28756;49.064;9.290;2023-12-07T04:16:36;10.55;;;8.15;;
43152;SDS011;28756;49.064;9.290;2023-12-07T04:19:02;11.85;;;8.05;;
43152;SDS011;28756;49.064;9.290;2023-12-07T04:21:27;9.18;;;7.15;;
43152;SDS011;28756;49.064;9.290;2023-12-07T04:23:53;12.10;;;8.40;;
43152;SDS011;28756;49.064;9.290;2023-12-07T04:26:18;11.65;;;8.18;;
43152;SDS011;28756;49.064;9.290;2023-12-07T04:28:44;12.60;;;9.35;;
43152;SDS011;28756;49.064;9.290;2023-12-07T04:31:10;22.92;;;16.95;;
43152;SDS011;28756;49.064;9.290;2023-12-07T04:33:35;16.70;;;12.48;;
43152;SDS011;28756;49.064;9.290;2023-12-07T04:36:01;14.52;;;11.13;;
43152;SDS011;28756;49.064;9.290;2023-12-07T04:38:29;15.48;;;11.35;;
43152;SDS011;28756;49.064;9.290;2023-12-07T04:40:55;14.05;;;9.57;;
43152;SDS011;28756;49.064;9.290;2023-12-07T04:43:20;18.20;;;11.82;;
43152;SDS011;28756;49.064;9.290;2023-12-07T04:45:46;13.50;;;9.80;;
43152;SDS011;28756;49.064;9.290;2023-12-07T04:48:11;11.27;;;8.23;;
43152;SDS011;28756;49.064;9.290;2023-12-07T04:50:37;11.52;;;8.30;;
43152;SDS011;28756;49.064;9.290;2023-12-07T04:53:02;12.55;;;9.00;;
43152;SDS011;28756;49.064;9.290;2023-12-07T04:55:28;12.75;;;9.48;;
43152;SDS011;28756;49.064;9.290;2023-12-07T04:57:54;11.57;;;8.07;;
43152;SDS011;28756;49.064;9.290;2023-12-07T05:00:19;14.93;;;9.05;;
43152;SDS011;28756;49.064;9.290;2023-12-07T05:02:46;13.93;;;9.23;;
43152;SDS011;28756;49.064;9.290;2023-12-07T05:05:14;11.10;;;7.85;;
43152;SDS011;28756;49.064;9.290;2023-12-07T05:07:40;12.40;;;8.63;;
43152;SDS011;28756;49.064;9.290;2023-12-07T05:10:06;12.63;;;8.75;;
43152;SDS011;28756;49.064;9.290;2023-12-07T05:12:32;10.82;;;7.97;;
43152;SDS011;28756;49.064;9.290;2023-12-07T05:14:57;13.05;;;9.60;;
43152;SDS011;28756;49.064;9.290;2023-12-07T05:17:23;13.10;;;9.68;;
43152;SDS011;28756;49.064;9.290;2023-12-07T05:19:49;12.35;;;8.93;;
43152;SDS011;28756;49.064;9.290;2023-12-07T05:22:14;16.58;;;9.88;;
43152;SDS011;28756;49.064;9.290;2023-12-07T05:24:40;13.77;;;9.85;;
43152;SDS011;28756;49.064;9.290;2023-12-07T05:27:06;14.20;;;9.68;;
43152;SDS011;28756;49.064;9.290;2023-12-07T05:29:31;11.88;;;8.40;;
43152;SDS011;28756;49.064;9.290;2023-12-07T05:31:57;11.65;;;8.40;;
43152;SDS011;28756;49.064;9.290;2023-12-07T05:34:22;14.27;;;9.55;;
43152;SDS011;28756;49.064;9.290;2023-12-07T05:36:48;9.95;;;8.18;;
43152;SDS011;28756;49.064;9.290;2023-12-07T05:39:14;12.60;;;8.45;;
43152;SDS011;28756;49.064;9.290;2023-12-07T05:41:39;17.73;;;10.85;;
43152;SDS011;28756;49.064;9.290;2023-12-07T05:44:05;14.32;;;9.82;;
43152;SDS011;28756;49.064;9.290;2023-12-07T05:46:31;15.15;;;10.15;;
43152;SDS011;28756;49.064;9.290;2023-12-07T05:48:57;15.10;;;8.38;;
43152;SDS011;28756;49.064;9.290;2023-12-07T05:51:23;12.95;;;9.13;;
43152;SDS011;28756;49.064;9.290;2023-12-07T05:53:49;11.70;;;8.20;;
43152;SDS011;28756;49.064;9.290;2023-12-07T05:56:21;10.93;;;7.70;;
43152;SDS011;28756;49.064;9.290;2023-12-07T05:58:47;12.63;;;8.77;;
43152;SDS011;28756;49.064;9.290;2023-12-07T06:01:18;11.63;;;8.68;;
43152;SDS011;28756;49.064;9.290;2023-12-07T06:03:44;10.68;;;7.60;;
43152;SDS011;28756;49.064;9.290;2023-12-07T06:06:10;13.65;;;9.02;;
43152;SDS011;28756;49.064;9.290;2023-12-07T06:08:36;15.88;;;10.57;;
43152;SDS011;28756;49.064;9.290;2023-12-07T06:11:02;16.17;;;11.00;;
43152;SDS011;28756;49.064;9.290;2023-12-07T06:13:28;18.83;;;12.75;;
43152;SDS011;28756;49.064;9.290;2023-12-07T06:15:53;14.40;;;9.82;;
43152;SDS011;28756;49.064;9.290;2023-12-07T06:18:19;13.55;;;9.60;;
43152;SDS011;28756;49.064;9.290;2023-12-07T06:20:44;13.48;;;10.00;;
43152;SDS011;28756;49.064;9.290;2023-12-07T06:23:10;11.60;;;8.43;;
43152;SDS011;28756;49.064;9.290;2023-12-07T06:25:38;12.82;;;8.98;;
43152;SDS011;28756;49.064;9.290;2023-12-07T06:28:04;12.95;;;8.60;;
43152;SDS011;28756;49.064;9.290;2023-12-07T06:30:29;16.60;;;10.13;;
43152;SDS011;28756;49.064;9.290;2023-12-07T06:32:55;15.38;;;10.18;;
43152;SDS011;28756;49.064;9.290;2023-12-07T06:35:21;13.10;;;9.38;;
43152;SDS011;28756;49.064;9.290;2023-12-07T06:37:46;12.55;;;8.98;;
43152;SDS011;28756;49.064;9.290;2023-12-07T06:40:12;13.40;;;9.68;;
43152;SDS011;28756;49.064;9.290;2023-12-07T06:42:38;15.00;;;10.07;;
43152;SDS011;28756;49.064;9.290;2023-12-07T06:45:04;16.83;;;11.02;;
43152;SDS011;28756;49.064;9.290;2023-12-07T06:47:35;14.50;;;9.68;;
43152;SDS011;28756;49.064;9.290;2023-12-07T06:50:01;12.15;;;8.68;;
43152;SDS011;28756;49.064;9.290;2023-12-07T06:52:27;15.18;;;10.20;;
43152;SDS011;28756;49.064;9.290;2023-12-07T06:54:53;13.32;;;9.43;;
43152;SDS011;28756;49.064;9.290;2023-12-07T06:57:18;13.80;;;9.32;;
43152;SDS011;28756;49.064;9.290;2023-12-07T06:59:44;11.68;;;8.30;;
43152;SDS011;28756;49.064;9.290;2023-12-07T07:02:09;15.13;;;10.02;;
43152;SDS011;28756;49.064;9.290;2023-12-07T07:04:35;13.55;;;9.07;;
43152;SDS011;28756;49.064;9.290;2023-12-07T07:07:00;12.73;;;8.68;;
43152;SDS011;28756;49.064;9.290;2023-12-07T07:09:26;12.35;;;8.63;;
43152;SDS011;28756;49.064;9.290;2023-12-07T07:11:52;15.18;;;10.23;;
43152;SDS011;28756;49.064;9.290;2023-12-07T07:14:18;15.75;;;10.38;;
43152;SDS011;28756;49.064;9.290;2023-12-07T07:16:44;16.55;;;10.45;;
43152;SDS011;28756;49.064;9.290;2023-12-07T07:19:10;17.80;;;11.13;;
43152;SDS011;28756;49.064;9.290;2023-12-07T07:21:36;17.38;;;10.35;;
43152;SDS011;28756;49.064;9.290;2023-12-07T07:24:01;12.25;;;9.05;;
43152;SDS011;28756;49.064;9.290;2023-12-07T07:26:27;14.07;;;9.27;;
43152;SDS011;28756;49.064;9.290;2023-12-07T07:28:52;16.98;;;11.10;;
43152;SDS011;28756;49.064;9.290;2023-12-07T07:31:18;15.40;;;10.30;;
43152;SDS011;28756;49.064;9.290;2023-12-07T07:33:44;17.23;;;11.82;;
43152;SDS011;28756;49.064;9.290;2023-12-07T07:36:12;22.10;;;12.02;;
43152;SDS011;28756;49.064;9.290;2023-12-07T07:38:38;15.05;;;10.45;;
43152;SDS011;28756;49.064;9.290;2023-12-07T07:41:04;14.05;;;9.68;;
43152;SDS011;28756;49.064;9.290;2023-12-07T07:43:30;13.88;;;10.13;;
43152;SDS011;28756;49.064;9.290;2023-12-07T07:45:55;14.43;;;9.13;;
43152;SDS011;28756;49.064;9.290;2023-12-07T07:48:21;12.18;;;8.95;;
43152;SDS011;28756;49.064;9.290;2023-12-07T07:50:47;13.48;;;9.88;;
43152;SDS011;28756;49.064;9.290;2023-12-07T07:53:12;17.60;;;12.18;;
43152;SDS011;28756;49.064;9.290;2023-12-07T07:55:38;15.07;;;10.18;;
43152;SDS011;28756;49.064;9.290;2023-12-07T07:58:04;13.93;;;9.75;;
43152;SDS011;28756;49.064;9.290;2023-12-07T08:00:29;14.55;;;10.23;;
43152;SDS011;28756;49.064;9.290;2023-12-07T08:02:55;11.98;;;9.05;;
43152;SDS011;28756;49.064;9.290;2023-12-07T08:05:21;14.43;;;9.50;;
43152;SDS011;28756;49.064;9.290;2023-12-07T08:07:47;13.52;;;8.65;;
43152;SDS011;28756;49.064;9.290;2023-12-07T08:10:12;11.18;;;8.00;;
43152;SDS011;28756;49.064;9.290;2023-12-07T08:12:39;11.65;;;7.97;;
43152;SDS011;28756;49.064;9.290;2023-12-07T08:15:05;14.70;;;9.80;;
43152;SDS011;28756;49.064;9.290;2023-12-07T08:17:36;16.02;;;9.80;;
43152;SDS011;28756;49.064;9.290;2023-12-07T08:20:06;12.77;;;9.38;;
43152;SDS011;28756;49.064;9.290;2023-12-07T08:22:32;13.80;;;10.18;;
43152;SDS011;28756;49.064;9.290;2023-12-07T08:24:58;18.65;;;13.20;;
43152;SDS011;28756;49.064;9.290;2023-12-07T08:27:25;17.20;;;11.07;;
43152;SDS011;28756;49.064;9.290;2023-12-07T08:29:50;15.45;;;10.00;;
43152;SDS011;28756;49.064;9.290;2023-12-07T08:32:16;14.50;;;10.85;;
43152;SDS011;28756;49.064;9.290;2023-12-07T08:34:44;16.92;;;10.40;;
43152;SDS011;28756;49.064;9.290;2023-12-07T08:37:09;16.55;;;11.50;;
43152;SDS011;28756;49.064;9.290;2023-12-07T08:39:35;16.10;;;11.00;;
43152;SDS011;28756;49.064;9.290;2023-12-07T08:42:01;15.52;;;10.32;;
43152;SDS011;28756;49.064;9.290;2023-12-07T08:44:26;14.23;;;10.82;;
43152;SDS011;28756;49.064;9.290;2023-12-07T08:46:52;15.85;;;10.95;;
43152;SDS011;28756;49.064;9.290;2023-12-07T08:49:17;15.80;;;10.70;;
43152;SDS011;28756;49.064;9.290;2023-12-07T08:51:43;16.23;;;11.63;;
43152;SDS011;28756;49.064;9.290;2023-12-07T08:54:09;16.02;;;11.43;;
43152;SDS011;28756;49.064;9.290;2023-12-07T08:56:34;17.33;;;11.20;;
43152;SDS011;28756;49.064;9.290;2023-12-07T08:59:00;15.00;;;10.40;;
43152;SDS011;28756;49.064;9.290;2023-12-07T09:01:25;13.63;;;9.10;;
43152;SDS011;28756;49.064;9.290;2023-12-07T09:03:51;17.73;;;10.50;;
43152;SDS011;28756;49.064;9.290;2023-12-07T09:06:17;13.15;;;9.77;;
43152;SDS011;28756;49.064;9.290;2023-12-07T09:08:43;17.08;;;10.60;;
43152;SDS011;28756;49.064;9.290;2023-12-07T09:11:08;15.43;;;9.70;;
43152;SDS011;28756;49.064;9.290;2023-12-07T09:13:34;14.82;;;9.32;;
43152;SDS011;28756;49.064;9.290;2023-12-07T09:16:00;13.88;;;9.48;;
43152;SDS011;28756;49.064;9.290;2023-12-07T09:18:26;14.32;;;9.60;;
43152;SDS011;28756;49.064;9.290;2023-12-07T09:20:51;14.35;;;8.65;;
43152;SDS011;28756;49.064;9.290;2023-12-07T09:23:17;13.32;;;9.00;;
43152;SDS011;28756;49.064;9.290;2023-12-07T09:25:43;14.43;;;9.57;;
43152;SDS011;28756;49.064;9.290;2023-12-07T09:28:08;13.35;;;9.35;;
43152;SDS011;28756;49.064;9.290;2023-12-07T09:30:34;12.40;;;9.02;;
43152;SDS011;28756;49.064;9.290;2023-12-07T09:33:00;12.95;;;9.52;;
43152;SDS011;28756;49.064;9.290;2023-12-07T09:35:29;12.07;;;8.60;;
43152;SDS011;28756;49.064;9.290;2023-12-07T09:37:54;12.48;;;9.25;;
43152;SDS011;28756;49.064;9.290;2023-12-07T09:40:21;12.20;;;8.57;;
43152;SDS011;28756;49.064;9.290;2023-12-07T09:42:47;12.50;;;8.20;;
43152;SDS011;28756;49.064;9.290;2023-12-07T09:45:13;17.27;;;10.02;;
43152;SDS011;28756;49.064;9.290;2023-12-07T09:47:41;19.10;;;11.65;;
43152;SDS011;28756;49.064;9.290;2023-12-07T09:50:08;22.35;;;14.18;;
43152;SDS011;28756;49.064;9.290;2023-12-07T09:52:34;20.60;;;14.20;;
43152;SDS011;28756;49.064;9.290;2023-12-07T09:55:03;20.65;;;14.20;;
43152;SDS011;28756;49.064;9.290;2023-12-07T09:57:30;18.73;;;12.15;;
43152;SDS011;28756;49.064;9.290;2023-12-07T09:59:56;18.02;;;12.98;;
43152;SDS011;28756;49.064;9.290;2023-12-07T10:02:22;16.65;;;12.25;;
43152;SDS011;28756;49.064;9.290;2023-12-07T10:04:48;16.85;;;11.60;;
43152;SDS011;28756;49.064;9.290;2023-12-07T10:07:34;17.63;;;11.43;;
43152;SDS011;28756;49.064;9.290;2023-12-07T10:10:01;13.82;;;10.50;;
43152;SDS011;28756;49.064;9.290;2023-12-07T10:12:28;16.20;;;9.98;;
43152;SDS011;28756;49.064;9.290;2023-12-07T10:14:54;11.88;;;9.25;;
43152;SDS011;28756;49.064;9.290;2023-12-07T10:17:20;15.77;;;10.80;;
43152;SDS011;28756;49.064;9.290;2023-12-07T10:19:45;15.80;;;11.82;;
43152;SDS011;28756;49.064;9.290;2023-12-07T10:22:14;15.07;;;10.00;;
43152;SDS011;28756;49.064;9.290;2023-12-07T10:24:42;15.57;;;10.10;;
43152;SDS011;28756;49.064;9.290;2023-12-07T10:27:08;14.68;;;10.98;;
43152;SDS011;28756;49.064;9.290;2023-12-07T10:29:37;14.05;;;10.05;;
43152;SDS011;28756;49.064;9.290;2023-12-07T10:32:03;14.57;;;10.10;;
43152;SDS011;28756;49.064;9.290;2023-12-07T10:34:29;13.63;;;9.88;;
43152;SDS011;28756;49.064;9.290;2023-12-07T10:36:56;13.98;;;9.77;;
43152;SDS011;28756;49.064;9.290;2023-12-07T10:39:23;14.02;;;9.10;;
43152;SDS011;28756;49.064;9.290;2023-12-07T10:41:49;11.25;;;8.20;;
43152;SDS011;28756;49.064;9.290;2023-12-07T10:44:17;10.25;;;7.57;;
43152;SDS011;28756;49.064;9.290;2023-12-07T10:46:44;10.02;;;7.95;;
43152;SDS011;28756;49.064;9.290;2023-12-07T10:49:11;10.77;;;7.70;;
43152;SDS011;28756;49.064;9.290;2023-12-07T10:51:41;8.48;;;7.55;;
43152;SDS011;28756;49.064;9.290;2023-12-07T10:54:10;9.48;;;7.55;;
43152;SDS011;28756;49.064;9.290;2023-12-07T10:56:44;10.00;;;7.28;;
43152;SDS011;28756;49.064;9.290;2023-12-07T10:59:10;9.27;;;7.82;;
43152;SDS011;28756;49.064;9.290;2023-12-07T11:01:41;8.88;;;7.03;;
43152;SDS011;28756;49.064;9.290;2023-12-07T11:04:10;10.32;;;7.18;;
43152;SDS011;28756;49.064;9.290;2023-12-07T11:06:37;8.38;;;7.18;;
43152;SDS011;28756;49.064;9.290;2023-12-07T11:09:09;8.07;;;7.10;;
43152;SDS011;28756;49.064;9.290;2023-12-07T11:14:24;8.52;;;6.93;;
43152;SDS011;28756;49.064;9.290;2023-12-07T11:16:52;7.80;;;6.35;;
43152;SDS011;28756;49.064;9.290;2023-12-07T11:22:05;11.63;;;7.43;;
43152;SDS011;28756;49.064;9.290;2023-12-07T11:24:32;8.55;;;6.78;;
43152;SDS011;28756;49.064;9.290;2023-12-07T11:26:58;9.73;;;7.00;;
43152;SDS011;28756;49.064;9.290;2023-12-07T11:29:24;7.30;;;6.30;;
43152;SDS011;28756;49.064;9.290;2023-12-07T11:31:50;8.23;;;6.72;;
43152;SDS011;28756;49.064;9.290;2023-12-07T11:34:36;8.50;;;7.10;;
43152;SDS011;28756;49.064;9.290;2023-12-07T11:37:04;7.68;;;6.03;;
43152;SDS011;28756;49.064;9.290;2023-12-07T11:39:34;7.57;;;6.22;;
43152;SDS011;28756;49.064;9.290;2023-12-07T11:42:22;8.15;;;5.20;;
43152;SDS011;28756;49.064;9.290;2023-12-07T11:44:49;7.95;;;4.70;;
43152;SDS011;28756;49.064;9.290;2023-12-07T11:47:16;6.07;;;4.53;;
43152;SDS011;28756;49.064;9.290;2023-12-07T11:49:45;7.20;;;5.25;;
43152;SDS011;28756;49.064;9.290;2023-12-07T11:52:15;6.07;;;4.53;;
43152;SDS011;28756;49.064;9.290;2023-12-07T11:54:43;4.68;;;3.88;;
43152;SDS011;28756;49.064;9.290;2023-12-07T11:57:15;5.55;;;3.95;;
43152;SDS011;28756;49.064;9.290;2023-12-07T11:59:45;4.18;;;3.60;;
43152;SDS011;28756;49.064;9.290;2023-12-07T12:02:13;5.68;;;3.67;;
43152;SDS011;28756;49.064;9.290;2023-12-07T12:04:42;5.55;;;3.45;;
43152;SDS011;28756;49.064;9.290;2023-12-07T12:07:07;5.18;;;3.13;;
43152;SDS011;28756;49.064;9.290;2023-12-07T12:09:33;5.10;;;3.25;;
43152;SDS011;28756;49.064;9.290;2023-12-07T12:11:59;3.35;;;2.72;;
43152;SDS011;28756;49.064;9.290;2023-12-07T12:14:25;4.00;;;2.92;;
43152;SDS011;28756;49.064;9.290;2023-12-07T12:16:51;4.70;;;3.15;;
43152;SDS011;28756;49.064;9.290;2023-12-07T12:19:18;4.35;;;2.95;;
43152;SDS011;28756;49.064;9.290;2023-12-07T12:21:43;5.03;;;3.42;;
43152;SDS011;28756;49.064;9.290;2023-12-07T12:24:09;5.22;;;3.28;;
43152;SDS011;28756;49.064;9.290;2023-12-07T12:26:36;4.32;;;2.85;;
43152;SDS011;28756;49.064;9.290;2023-12-07T12:29:03;4.57;;;2.72;;
43152;SDS011;28756;49.064;9.290;2023-12-07T12:31:29;3.00;;;2.60;;
43152;SDS011;28756;49.064;9.290;2023-12-07T12:33:55;3.85;;;2.72;;
43152;SDS011;28756;49.064;9.290;2023-12-07T12:36:21;4.10;;;2.70;;
43152;SDS011;28756;49.064;9.290;2023-12-07T12:38:52;5.22;;;2.58;;
43152;SDS011;28756;49.064;9.290;2023-12-07T12:41:21;4.25;;;2.03;;
43152;SDS011;28756;49.064;9.290;2023-12-07T12:43:47;2.28;;;1.88;;
43152;SDS011;28756;49.064;9.290;2023-12-07T12:46:13;3.13;;;2.25;;
43152;SDS011;28756;49.064;9.290;2023-12-07T12:48:53;5.57;;;2.15;;
43152;SDS011;28756;49.064;9.290;2023-12-07T12:51:19;4.63;;;2.50;;
43152;SDS011;28756;49.064;9.290;2023-12-07T12:53:46;3.67;;;2.70;;
43152;SDS011;28756;49.064;9.290;2023-12-07T12:56:13;3.50;;;2.40;;
43152;SDS011;28756;49.064;9.290;2023-12-07T12:58:39;2.90;;;2.10;;
43152;SDS011;28756;49.064;9.290;2023-12-07T13:01:04;3.95;;;2.30;;
43152;SDS011;28756;49.064;9.290;2023-12-07T13:03:32;3.28;;;2.22;;
43152;SDS011;28756;49.064;9.290;2023-12-07T13:05:57;4.53;;;2.20;;
43152;SDS011;28756;49.064;9.290;2023-12-07T13:08:23;3.88;;;2.50;;
43152;SDS011;28756;49.064;9.290;2023-12-07T13:10:49;3.17;;;2.40;;
43152;SDS011;28756;49.064;9.290;2023-12-07T13:13:15;3.45;;;2.55;;
43152;SDS011;28756;49.064;9.290;2023-12-07T13:15:41;3.60;;;2.47;;
43152;SDS011;28756;49.064;9.290;2023-12-07T13:18:06;3.53;;;2.30;;
43152;SDS011;28756;49.064;9.290;2023-12-07T13:20:32;3.35;;;2.20;;
43152;SDS011;28756;49.064;9.290;2023-12-07T13:23:00;3.85;;;2.10;;
43152;SDS011;28756;49.064;9.290;2023-12-07T13:25:25;4.47;;;2.53;;
43152;SDS011;28756;49.064;9.290;2023-12-07T13:27:51;3.95;;;2.45;;
43152;SDS011;28756;49.064;9.290;2023-12-07T13:30:17;4.72;;;2.38;;
43152;SDS011;28756;49.064;9.290;2023-12-07T13:32:43;3.95;;;2.50;;
43152;SDS011;28756;49.064;9.290;2023-12-07T13:35:09;3.47;;;2.85;;
43152;SDS011;28756;49.064;9.290;2023-12-07T13:37:35;3.25;;;2.53;;
43152;SDS011;28756;49.064;9.290;2023-12-07T13:40:01;3.67;;;2.28;;
43152;SDS011;28756;49.064;9.290;2023-12-07T13:42:29;4.00;;;2.08;;
43152;SDS011;28756;49.064;9.290;2023-12-07T13:44:55;3.40;;;2.50;;
43152;SDS011;28756;49.064;9.290;2023-12-07T13:47:22;3.20;;;2.38;;
43152;SDS011;28756;49.064;9.290;2023-12-07T13:49:58;3.15;;;2.40;;
43152;SDS011;28756;49.064;9.290;2023-12-07T13:52:24;2.75;;;2.10;;
43152;SDS011;28756;49.064;9.290;2023-12-07T13:54:50;2.88;;;2.05;;
43152;SDS011;28756;49.064;9.290;2023-12-07T13:57:15;5.53;;;2.10;;
43152;SDS011;28756;49.064;9.290;2023-12-07T13:59:41;2.28;;;1.60;;
43152;SDS011;28756;49.064;9.290;2023-12-07T14:02:07;3.92;;;2.53;;
43152;SDS011;28756;49.064;9.290;2023-12-07T14:04:33;2.90;;;2.30;;
43152;SDS011;28756;49.064;9.290;2023-12-07T14:07:08;5.10;;;2.28;;
43152;SDS011;28756;49.064;9.290;2023-12-07T14:09:39;2.80;;;2.15;;
43152;SDS011;28756;49.064;9.290;2023-12-07T14:12:06;5.13;;;2.65;;
43152;SDS011;28756;49.064;9.290;2023-12-07T14:14:32;3.08;;;2.20;;
43152;SDS011;28756;49.064;9.290;2023-12-07T14:16:58;5.38;;;2.85;;
43152;SDS011;28756;49.064;9.290;2023-12-07T14:19:23;4.15;;;2.88;;
43152;SDS011;28756;49.064;9.290;2023-12-07T14:21:49;4.95;;;4.22;;
43152;SDS011;28756;49.064;9.290;2023-12-07T14:24:14;4.38;;;3.65;;
43152;SDS011;28756;49.064;9.290;2023-12-07T14:26:43;3.65;;;3.10;;
43152;SDS011;28756;49.064;9.290;2023-12-07T14:29:09;6.28;;;5.68;;
43152;SDS011;28756;49.064;9.290;2023-12-07T14:31:39;5.90;;;5.30;;
43152;SDS011;28756;49.064;9.290;2023-12-07T14:34:05;6.25;;;5.07;;
43152;SDS011;28756;49.064;9.290;2023-12-07T14:36:31;7.50;;;6.20;;
43152;SDS011;28756;49.064;9.290;2023-12-07T14:38:56;6.20;;;4.68;;